sensor_id;sensor_type;location;lat;lon;timestamp;pressure;altitude;pressure_sealevel;temperature;humidity
74435;BME280;62867;52.038;29.256;2022-11-15T00:03:59;1031.6;;;5.3;71.2
74435;BME280;62867;52.038;29.256;2022-11-15T00:08:59;1031.4;;;5.3;71.2
74435;BME280;62867;52.038;29.256;2022-11-15T00:14:09;1031.3;;;5.3;71
74435;BME280;62867;52.038;29.256;2022-11-15T00:18:59;1031.3;;;5.3;71.2
74435;BME280;62867;52.038;29.256;2022-11-15T00:23:59;1031.2;;;5.3;71.1
74435;BME280;62867;52.038;29.256;2022-11-15T00:29:21;1031.1;;;5.3;71
74435;BME280;62867;52.038;29.256;2022-11-15T00:34:07;1031.1;;;5.3;70.9
74435;BME280;62867;52.038;29.256;2022-11-15T00:38:59;1031;;;5.3;71
74435;BME280;62867;52.038;29.256;2022-11-15T00:44:09;1030.9;;;5.2;70.4
74435;BME280;62867;52.038;29.256;2022-11-15T00:49:53;1030.9;;;5.1;70.7
74435;BME280;62867;52.038;29.256;2022-11-15T00:53:59;1030.8;;;5.1;70.7
74435;BME280;62867;52.038;29.256;2022-11-15T00:59:09;1030.7;;;5.1;70.9
74435;BME280;62867;52.038;29.256;2022-11-15T01:04:23;1030.7;;;5.1;71.5
74435;BME280;62867;52.038;29.256;2022-11-15T01:09:19;1030.6;;;5.1;71.7
74435;BME280;62867;52.038;29.256;2022-11-15T01:14:15;1030.6;;;5.1;71.9
74435;BME280;62867;52.038;29.256;2022-11-15T01:19:23;1030.6;;;5.2;71.6
74435;BME280;62867;52.038;29.256;2022-11-15T01:23:59;1030.6;;;5.1;71.4
74435;BME280;62867;52.038;29.256;2022-11-15T01:29:13;1030.5;;;5.1;71.3
74435;BME280;62867;52.038;29.256;2022-11-15T01:34:03;1030.4;;;5;71.1
74435;BME280;62867;52.038;29.256;2022-11-15T01:39:03;1030.4;;;5;70.6
74435;BME280;62867;52.038;29.256;2022-11-15T01:44:43;1030.3;;;4.8;70.8
74435;BME280;62867;52.038;29.256;2022-11-15T01:49:29;1030.2;;;4.8;71.1
74435;BME280;62867;52.038;29.256;2022-11-15T01:54:13;1030.1;;;4.7;71.3
74435;BME280;62867;52.038;29.256;2022-11-15T01:59:13;1030.2;;;4.7;71.3
74435;BME280;62867;52.038;29.256;2022-11-15T02:04:20;1030.2;;;4.7;71.2
74435;BME280;62867;52.038;29.256;2022-11-15T02:09:15;1030.1;;;4.6;70.8
74435;BME280;62867;52.038;29.256;2022-11-15T02:14:11;1030.1;;;4.6;70.6
74435;BME280;62867;52.038;29.256;2022-11-15T02:20:03;1030.1;;;4.5;70.4
74435;BME280;62867;52.038;29.256;2022-11-15T02:24:44;1030;;;4.5;70.8
74435;BME280;62867;52.038;29.256;2022-11-15T02:29:35;1029.9;;;4.4;70.5
74435;BME280;62867;52.038;29.256;2022-11-15T02:34:16;1029.8;;;4.4;70.5
74435;BME280;62867;52.038;29.256;2022-11-15T02:39:13;1029.9;;;4.3;70.7
74435;BME280;62867;52.038;29.256;2022-11-15T02:44:03;1029.8;;;4.3;71
74435;BME280;62867;52.038;29.256;2022-11-15T02:49:03;1029.8;;;4.3;71.3
74435;BME280;62867;52.038;29.256;2022-11-15T02:54:20;1029.7;;;4.3;71.2
74435;BME280;62867;52.038;29.256;2022-11-15T02:59:07;1029.6;;;4.3;71.1
74435;BME280;62867;52.038;29.256;2022-11-15T03:04:28;1029.5;;;4.3;71.4
74435;BME280;62867;52.038;29.256;2022-11-15T03:09:12;1029.5;;;4.3;71.6
74435;BME280;62867;52.038;29.256;2022-11-15T03:14:16;1029.5;;;4.4;71.8
74435;BME280;62867;52.038;29.256;2022-11-15T03:19:19;1029.4;;;4.4;71.3
74435;BME280;62867;52.038;29.256;2022-11-15T03:24:03;1029.3;;;4.4;71.4
74435;BME280;62867;52.038;29.256;2022-11-15T03:29:11;1029.2;;;4.5;71.4
74435;BME280;62867;52.038;29.256;2022-11-15T03:34:03;1029.2;;;4.5;71.4
74435;BME280;62867;52.038;29.256;2022-11-15T03:39:15;1029.2;;;4.5;71
74435;BME280;62867;52.038;29.256;2022-11-15T03:44:04;1029.1;;;4.4;71
74435;BME280;62867;52.038;29.256;2022-11-15T03:49:05;1029;;;4.4;71.5
74435;BME280;62867;52.038;29.256;2022-11-15T03:54:11;1029;;;4.4;71.8
74435;BME280;62867;52.038;29.256;2022-11-15T03:59:11;1028.9;;;4.4;71.8
74435;BME280;62867;52.038;29.256;2022-11-15T04:04:03;1028.8;;;4.4;71.7
74435;BME280;62867;52.038;29.256;2022-11-15T04:09:17;1028.7;;;4.5;71.8
74435;BME280;62867;52.038;29.256;2022-11-15T04:14:15;1028.6;;;4.5;72.4
74435;BME280;62867;52.038;29.256;2022-11-15T04:19:11;1028.6;;;4.6;72.2
74435;BME280;62867;52.038;29.256;2022-11-15T04:24:11;1028.5;;;4.6;72.3
74435;BME280;62867;52.038;29.256;2022-11-15T04:29:29;1028.5;;;4.7;72.5
74435;BME280;62867;52.038;29.256;2022-11-15T04:34:17;1028.4;;;4.7;72.3
74435;BME280;62867;52.038;29.256;2022-11-15T04:39:03;1028.4;;;4.8;72.4
74435;BME280;62867;52.038;29.256;2022-11-15T04:44:03;1028.3;;;4.8;71.9
74435;BME280;62867;52.038;29.256;2022-11-15T04:49:03;1028.2;;;4.9;72.1
74435;BME280;62867;52.038;29.256;2022-11-15T04:54:21;1028.1;;;4.9;72
74435;BME280;62867;52.038;29.256;2022-11-15T04:59:03;1028;;;5;72
74435;BME280;62867;52.038;29.256;2022-11-15T05:04:03;1027.9;;;5;72.3
74435;BME280;62867;52.038;29.256;2022-11-15T05:09:03;1027.8;;;5;72.3
74435;BME280;62867;52.038;29.256;2022-11-15T05:14:23;1027.8;;;5.1;71.8
74435;BME280;62867;52.038;29.256;2022-11-15T05:19:03;1027.7;;;5.1;72.2
74435;BME280;62867;52.038;29.256;2022-11-15T05:24:03;1027.6;;;5.1;71.8
74435;BME280;62867;52.038;29.256;2022-11-15T05:29:03;1027.7;;;5;72
74435;BME280;62867;52.038;29.256;2022-11-15T05:34:27;1027.7;;;5.1;72.3
74435;BME280;62867;52.038;29.256;2022-11-15T05:39:04;1027.6;;;5.1;72.2
74435;BME280;62867;52.038;29.256;2022-11-15T05:44:03;1027.6;;;5;72.2
74435;BME280;62867;52.038;29.256;2022-11-15T05:49:03;1027.6;;;5;72.4
74435;BME280;62867;52.038;29.256;2022-11-15T05:54:03;1027.6;;;5;72.3
74435;BME280;62867;52.038;29.256;2022-11-15T05:59:23;1027.6;;;5;72.1
74435;BME280;62867;52.038;29.256;2022-11-15T06:04:03;1027.6;;;5;72.2
74435;BME280;62867;52.038;29.256;2022-11-15T06:09:03;1027.5;;;5;72.3
74435;BME280;62867;52.038;29.256;2022-11-15T06:14:17;1027.4;;;5;73
74435;BME280;62867;52.038;29.256;2022-11-15T06:19:15;1027.4;;;5.1;72.6
74435;BME280;62867;52.038;29.256;2022-11-15T06:24:03;1027.3;;;5.1;72.7
74435;BME280;62867;52.038;29.256;2022-11-15T06:29:21;1027.2;;;5.2;72.7
74435;BME280;62867;52.038;29.256;2022-11-15T06:34:13;1027.1;;;5.3;72.6
74435;BME280;62867;52.038;29.256;2022-11-15T06:39:15;1027.1;;;5.3;72.8
74435;BME280;62867;52.038;29.256;2022-11-15T06:44:03;1027.1;;;5.3;72.6
74435;BME280;62867;52.038;29.256;2022-11-15T06:49:15;1027;;;5.3;72.2
74435;BME280;62867;52.038;29.256;2022-11-15T06:54:11;1026.9;;;5.3;72.5
74435;BME280;62867;52.038;29.256;2022-11-15T06:59:11;1026.9;;;5.3;72.5
74435;BME280;62867;52.038;29.256;2022-11-15T07:04:27;1026.9;;;5.4;72.3
74435;BME280;62867;52.038;29.256;2022-11-15T07:09:03;1026.9;;;5.4;72.6
74435;BME280;62867;52.038;29.256;2022-11-15T07:14:11;1026.7;;;5.5;72.6
74435;BME280;62867;52.038;29.256;2022-11-15T07:19:11;1026.7;;;5.5;72.6
74435;BME280;62867;52.038;29.256;2022-11-15T07:24:03;1026.6;;;5.6;72.3
74435;BME280;62867;52.038;29.256;2022-11-15T07:29:17;1026.6;;;5.6;72.4
74435;BME280;62867;52.038;29.256;2022-11-15T07:34:25;1026.6;;;5.6;72.3
74435;BME280;62867;52.038;29.256;2022-11-15T07:39:03;1026.5;;;5.6;72.3
74435;BME280;62867;52.038;29.256;2022-11-15T07:44:13;1026.5;;;5.6;72.1
74435;BME280;62867;52.038;29.256;2022-11-15T07:49:03;1026.4;;;5.5;72.2
74435;BME280;62867;52.038;29.256;2022-11-15T07:54:17;1026.3;;;5.5;72.8
74435;BME280;62867;52.038;29.256;2022-11-15T07:59:13;1026.2;;;5.5;72.6
74435;BME280;62867;52.038;29.256;2022-11-15T08:04:23;1026.2;;;5.6;72.5
74435;BME280;62867;52.038;29.256;2022-11-15T08:09:23;1026.2;;;5.6;72.5
74435;BME280;62867;52.038;29.256;2022-11-15T08:14:23;1026.1;;;5.8;72.2
74435;BME280;62867;52.038;29.256;2022-11-15T08:19:15;1025.9;;;5.8;72
74435;BME280;62867;52.038;29.256;2022-11-15T08:24:27;1025.8;;;6;71.8
74435;BME280;62867;52.038;29.256;2022-11-15T08:29:23;1025.7;;;6.1;71.7
74435;BME280;62867;52.038;29.256;2022-11-15T08:34:03;1025.6;;;6.2;71.4
74435;BME280;62867;52.038;29.256;2022-11-15T08:39:03;1025.5;;;6.3;71.4
74435;BME280;62867;52.038;29.256;2022-11-15T08:44:03;1025.5;;;6.3;70.6
74435;BME280;62867;52.038;29.256;2022-11-15T08:49:15;1025.5;;;6.2;70.3
74435;BME280;62867;52.038;29.256;2022-11-15T08:54:03;1025.4;;;6.1;70.2
74435;BME280;62867;52.038;29.256;2022-11-15T08:59:03;1025.3;;;6.1;70.3
74435;BME280;62867;52.038;29.256;2022-11-15T09:04:11;1025.3;;;6;70.3
74435;BME280;62867;52.038;29.256;2022-11-15T09:09:03;1025.2;;;6;70.4
74435;BME280;62867;52.038;29.256;2022-11-15T09:14:25;1025.2;;;6;70.8
74435;BME280;62867;52.038;29.256;2022-11-15T09:19:37;1025.1;;;6.1;70.9
74435;BME280;62867;52.038;29.256;2022-11-15T09:24:03;1025;;;6.1;70.7
74435;BME280;62867;52.038;29.256;2022-11-15T09:29:27;1024.8;;;6;71
74435;BME280;62867;52.038;29.256;2022-11-15T09:34:15;1024.8;;;6;70.9
74435;BME280;62867;52.038;29.256;2022-11-15T09:39:15;1024.7;;;6;71
74435;BME280;62867;52.038;29.256;2022-11-15T09:44:07;1024.6;;;6;70.8
74435;BME280;62867;52.038;29.256;2022-11-15T09:49:03;1024.5;;;6;70.8
74435;BME280;62867;52.038;29.256;2022-11-15T09:54:23;1024.3;;;6;70.8
74435;BME280;62867;52.038;29.256;2022-11-15T09:59:40;1024.2;;;6;71
74435;BME280;62867;52.038;29.256;2022-11-15T10:04:03;1024.1;;;6;71.2
74435;BME280;62867;52.038;29.256;2022-11-15T10:09:13;1024;;;6;71.4
74435;BME280;62867;52.038;29.256;2022-11-15T10:14:23;1023.8;;;6.1;71.6
74435;BME280;62867;52.038;29.256;2022-11-15T10:19:23;1023.7;;;6.2;71.4
74435;BME280;62867;52.038;29.256;2022-11-15T10:24:06;1023.7;;;6.3;71.4
74435;BME280;62867;52.038;29.256;2022-11-15T10:29:17;1023.5;;;6.3;71.2
74435;BME280;62867;52.038;29.256;2022-11-15T10:34:09;1023.5;;;6.3;71.2
74435;BME280;62867;52.038;29.256;2022-11-15T10:39:03;1023.4;;;6.4;71.2
74435;BME280;62867;52.038;29.256;2022-11-15T10:44:08;1023.4;;;6.4;70.9
74435;BME280;62867;52.038;29.256;2022-11-15T10:49:12;1023.3;;;6.4;71
74435;BME280;62867;52.038;29.256;2022-11-15T10:54:03;1023.2;;;6.4;70.9
74435;BME280;62867;52.038;29.256;2022-11-15T10:59:03;1023;;;6.4;71
74435;BME280;62867;52.038;29.256;2022-11-15T11:04:11;1023;;;6.4;70.9
74435;BME280;62867;52.038;29.256;2022-11-15T11:09:05;1022.9;;;6.4;70.9
74435;BME280;62867;52.038;29.256;2022-11-15T11:14:10;1022.9;;;6.4;71.4
74435;BME280;62867;52.038;29.256;2022-11-15T11:19:30;1022.8;;;6.3;71.5
74435;BME280;62867;52.038;29.256;2022-11-15T11:24:13;1022.8;;;6.3;71.9
74435;BME280;62867;52.038;29.256;2022-11-15T11:29:43;1022.7;;;6.3;71.8
74435;BME280;62867;52.038;29.256;2022-11-15T11:34:40;1022.6;;;6.3;71.9
74435;BME280;62867;52.038;29.256;2022-11-15T11:39:08;1022.5;;;6.3;72
74435;BME280;62867;52.038;29.256;2022-11-15T11:44:32;1022.4;;;6.2;71.9
74435;BME280;62867;52.038;29.256;2022-11-15T11:49:06;1022.4;;;6.2;72.6
74435;BME280;62867;52.038;29.256;2022-11-15T11:54:05;1022.4;;;6.3;72
74435;BME280;62867;52.038;29.256;2022-11-15T11:59:05;1022.3;;;6.2;72.1
74435;BME280;62867;52.038;29.256;2022-11-15T12:04:57;1022.2;;;6.2;72.2
74435;BME280;62867;52.038;29.256;2022-11-15T12:09:42;1022.1;;;6.2;72.4
74435;BME280;62867;52.038;29.256;2022-11-15T12:14:04;1022;;;6.2;72.6
74435;BME280;62867;52.038;29.256;2022-11-15T12:19:25;1022;;;6.3;72.8
74435;BME280;62867;52.038;29.256;2022-11-15T12:24:04;1021.9;;;6.3;72.7
74435;BME280;62867;52.038;29.256;2022-11-15T12:29:04;1021.9;;;6.4;72.7
74435;BME280;62867;52.038;29.256;2022-11-15T12:34:28;1021.9;;;6.4;72.5
74435;BME280;62867;52.038;29.256;2022-11-15T12:39:15;1021.8;;;6.5;72.4
74435;BME280;62867;52.038;29.256;2022-11-15T12:44:56;1021.8;;;6.4;72.5
74435;BME280;62867;52.038;29.256;2022-11-15T12:55:02;1021.6;;;6.5;72.9
74435;BME280;62867;52.038;29.256;2022-11-15T12:59:47;1021.5;;;6.5;72.7
74435;BME280;62867;52.038;29.256;2022-11-15T13:04:24;1021.4;;;6.5;72.7
74435;BME280;62867;52.038;29.256;2022-11-15T13:09:03;1021.4;;;6.5;72.7
74435;BME280;62867;52.038;29.256;2022-11-15T13:14:46;1021.4;;;6.5;73
74435;BME280;62867;52.038;29.256;2022-11-15T13:19:03;1021.3;;;6.6;73.2
74435;BME280;62867;52.038;29.256;2022-11-15T13:24:03;1021.3;;;6.6;72.9
74435;BME280;62867;52.038;29.256;2022-11-15T13:29:12;1021.2;;;6.7;73.1
74435;BME280;62867;52.038;29.256;2022-11-15T13:34:27;1021.1;;;6.7;72.8
74435;BME280;62867;52.038;29.256;2022-11-15T13:39:12;1021.1;;;6.7;72.7
74435;BME280;62867;52.038;29.256;2022-11-15T13:44:19;1021.1;;;6.6;72.8
74435;BME280;62867;52.038;29.256;2022-11-15T13:49:15;1021.1;;;6.6;72.9
74435;BME280;62867;52.038;29.256;2022-11-15T13:54:08;1021;;;6.6;73
74435;BME280;62867;52.038;29.256;2022-11-15T13:59:08;1020.9;;;6.6;73.1
74435;BME280;62867;52.038;29.256;2022-11-15T14:04:03;1020.9;;;6.6;73.2
74435;BME280;62867;52.038;29.256;2022-11-15T14:09:14;1020.8;;;6.6;73.2
74435;BME280;62867;52.038;29.256;2022-11-15T14:14:10;1020.7;;;6.6;73.5
74435;BME280;62867;52.038;29.256;2022-11-15T14:19:03;1020.6;;;6.6;73.5
74435;BME280;62867;52.038;29.256;2022-11-15T14:24:14;1020.6;;;6.6;73.5
74435;BME280;62867;52.038;29.256;2022-11-15T14:29:21;1020.5;;;6.7;73.6
74435;BME280;62867;52.038;29.256;2022-11-15T14:34:03;1020.3;;;6.7;73.5
74435;BME280;62867;52.038;29.256;2022-11-15T14:39:03;1020.3;;;6.7;73.5
74435;BME280;62867;52.038;29.256;2022-11-15T14:44:15;1020.3;;;6.7;73.5
74435;BME280;62867;52.038;29.256;2022-11-15T14:49:03;1020.2;;;6.7;73.6
74435;BME280;62867;52.038;29.256;2022-11-15T14:54:04;1020.2;;;6.8;73.4
74435;BME280;62867;52.038;29.256;2022-11-15T14:59:17;1020.2;;;6.8;73.4
74435;BME280;62867;52.038;29.256;2022-11-15T15:04:03;1020.1;;;6.8;73.5
74435;BME280;62867;52.038;29.256;2022-11-15T15:09:15;1020.1;;;6.8;73.5
74435;BME280;62867;52.038;29.256;2022-11-15T15:14:11;1020.1;;;6.9;73.4
74435;BME280;62867;52.038;29.256;2022-11-15T15:19:25;1020;;;6.9;73.5
74435;BME280;62867;52.038;29.256;2022-11-15T15:24:13;1020.1;;;6.9;73.5
74435;BME280;62867;52.038;29.256;2022-11-15T15:29:03;1020;;;7;73.5
74435;BME280;62867;52.038;29.256;2022-11-15T15:34:13;1020;;;7;73.5
74435;BME280;62867;52.038;29.256;2022-11-15T15:39:23;1019.9;;;7;73.4
74435;BME280;62867;52.038;29.256;2022-11-15T15:44:03;1019.8;;;7;73.3
74435;BME280;62867;52.038;29.256;2022-11-15T15:49:25;1019.8;;;7;73.5
74435;BME280;62867;52.038;29.256;2022-11-15T15:54:03;1019.8;;;6.9;73.3
74435;BME280;62867;52.038;29.256;2022-11-15T15:59:04;1019.8;;;6.9;73.4
74435;BME280;62867;52.038;29.256;2022-11-15T16:04:03;1019.7;;;6.9;73.5
74435;BME280;62867;52.038;29.256;2022-11-15T16:09:14;1019.6;;;7;73.7
74435;BME280;62867;52.038;29.256;2022-11-15T16:14:29;1019.5;;;7;73.6
74435;BME280;62867;52.038;29.256;2022-11-15T16:19:03;1019.5;;;7.1;73.5
74435;BME280;62867;52.038;29.256;2022-11-15T16:24:15;1019.4;;;7.1;73.7
74435;BME280;62867;52.038;29.256;2022-11-15T16:29:03;1019.4;;;7.2;73.6
74435;BME280;62867;52.038;29.256;2022-11-15T16:34:03;1019.2;;;7.2;73.5
74435;BME280;62867;52.038;29.256;2022-11-15T16:39:03;1019.2;;;7.2;73.6
74435;BME280;62867;52.038;29.256;2022-11-15T16:44:03;1019.1;;;7.2;73.4
74435;BME280;62867;52.038;29.256;2022-11-15T16:49:03;1019;;;7.2;73.1
74435;BME280;62867;52.038;29.256;2022-11-15T16:54:27;1019;;;7.2;73.3
74435;BME280;62867;52.038;29.256;2022-11-15T16:59:14;1018.9;;;7.2;73.5
74435;BME280;62867;52.038;29.256;2022-11-15T17:04:03;1018.9;;;7.2;73.5
74435;BME280;62867;52.038;29.256;2022-11-15T17:09:18;1018.9;;;7.3;73.8
74435;BME280;62867;52.038;29.256;2022-11-15T17:14:03;1018.9;;;7.3;73.6
74435;BME280;62867;52.038;29.256;2022-11-15T17:19:23;1018.9;;;7.3;73.5
74435;BME280;62867;52.038;29.256;2022-11-15T17:24:03;1018.9;;;7.3;73.6
74435;BME280;62867;52.038;29.256;2022-11-15T17:29:03;1018.9;;;7.4;73.4
74435;BME280;62867;52.038;29.256;2022-11-15T17:34:17;1018.8;;;7.4;73.4
74435;BME280;62867;52.038;29.256;2022-11-15T17:39:27;1018.8;;;7.4;73.3
74435;BME280;62867;52.038;29.256;2022-11-15T17:44:03;1018.7;;;7.3;73.2
74435;BME280;62867;52.038;29.256;2022-11-15T17:49:17;1018.6;;;7.3;73.4
74435;BME280;62867;52.038;29.256;2022-11-15T17:54:17;1018.5;;;7.3;73.4
74435;BME280;62867;52.038;29.256;2022-11-15T17:59:27;1018.5;;;7.4;73.3
74435;BME280;62867;52.038;29.256;2022-11-15T18:04:13;1018.4;;;7.4;73.4
74435;BME280;62867;52.038;29.256;2022-11-15T18:09:03;1018.4;;;7.4;73.5
74435;BME280;62867;52.038;29.256;2022-11-15T18:14:04;1018.3;;;7.5;73.7
74435;BME280;62867;52.038;29.256;2022-11-15T18:19:29;1018.3;;;7.5;73.5
74435;BME280;62867;52.038;29.256;2022-11-15T18:24:03;1018.3;;;7.6;73.7
74435;BME280;62867;52.038;29.256;2022-11-15T18:29:03;1018.2;;;7.6;73.6
74435;BME280;62867;52.038;29.256;2022-11-15T18:34:14;1018.2;;;7.6;73.4
74435;BME280;62867;52.038;29.256;2022-11-15T18:39:13;1018.2;;;7.6;73.1
74435;BME280;62867;52.038;29.256;2022-11-15T18:44:03;1018.2;;;7.6;73.2
74435;BME280;62867;52.038;29.256;2022-11-15T18:49:18;1018.2;;;7.6;73.3
74435;BME280;62867;52.038;29.256;2022-11-15T18:54:03;1018.2;;;7.5;73.2
74435;BME280;62867;52.038;29.256;2022-11-15T18:59:03;1018.2;;;7.5;73.5
74435;BME280;62867;52.038;29.256;2022-11-15T19:04:14;1018.1;;;7.5;73.6
74435;BME280;62867;52.038;29.256;2022-11-15T19:09:17;1018.1;;;7.6;73.5
74435;BME280;62867;52.038;29.256;2022-11-15T19:14:04;1018.1;;;7.6;73.4
74435;BME280;62867;52.038;29.256;2022-11-15T19:19:16;1018.1;;;7.6;73.4
74435;BME280;62867;52.038;29.256;2022-11-15T19:24:09;1018.1;;;7.7;73.5
74435;BME280;62867;52.038;29.256;2022-11-15T19:29:04;1018;;;7.7;73.4
74435;BME280;62867;52.038;29.256;2022-11-15T19:34:17;1018;;;7.7;73.3
74435;BME280;62867;52.038;29.256;2022-11-15T19:39:04;1018;;;7.7;73.1
74435;BME280;62867;52.038;29.256;2022-11-15T19:44:03;1018;;;7.7;73.1
74435;BME280;62867;52.038;29.256;2022-11-15T19:49:25;1018;;;7.6;73
74435;BME280;62867;52.038;29.256;2022-11-15T19:54:13;1017.9;;;7.6;73.1
74435;BME280;62867;52.038;29.256;2022-11-15T19:59:27;1017.9;;;7.6;73.2
74435;BME280;62867;52.038;29.256;2022-11-15T20:04:03;1017.8;;;7.6;73.5
74435;BME280;62867;52.038;29.256;2022-11-15T20:09:14;1017.8;;;7.6;73.3
74435;BME280;62867;52.038;29.256;2022-11-15T20:14:15;1017.7;;;7.7;73.4
74435;BME280;62867;52.038;29.256;2022-11-15T20:19:13;1017.7;;;7.7;73.4
74435;BME280;62867;52.038;29.256;2022-11-15T20:24:15;1017.7;;;7.7;73.3
74435;BME280;62867;52.038;29.256;2022-11-15T20:29:17;1017.7;;;7.7;73.5
74435;BME280;62867;52.038;29.256;2022-11-15T20:34:15;1017.7;;;7.7;73.5
74435;BME280;62867;52.038;29.256;2022-11-15T20:39:15;1017.6;;;7.7;73.3
74435;BME280;62867;52.038;29.256;2022-11-15T20:44:13;1017.6;;;7.7;73.2
74435;BME280;62867;52.038;29.256;2022-11-15T20:49:27;1017.6;;;7.7;73.2
74435;BME280;62867;52.038;29.256;2022-11-15T20:54:03;1017.5;;;7.7;73.3
74435;BME280;62867;52.038;29.256;2022-11-15T20:59:13;1017.5;;;7.7;73.3
74435;BME280;62867;52.038;29.256;2022-11-15T21:04:13;1017.4;;;7.7;73.3
74435;BME280;62867;52.038;29.256;2022-11-15T21:09:03;1017.4;;;7.7;73.4
74435;BME280;62867;52.038;29.256;2022-11-15T21:14:13;1017.4;;;7.8;73.4
74435;BME280;62867;52.038;29.256;2022-11-15T21:19:03;1017.3;;;7.8;73.4
74435;BME280;62867;52.038;29.256;2022-11-15T21:24:04;1017.3;;;7.8;73.3
74435;BME280;62867;52.038;29.256;2022-11-15T21:29:13;1017.3;;;7.8;73.2
74435;BME280;62867;52.038;29.256;2022-11-15T21:34:13;1017.3;;;7.8;73.3
74435;BME280;62867;52.038;29.256;2022-11-15T21:39:13;1017.2;;;7.8;73.3
74435;BME280;62867;52.038;29.256;2022-11-15T21:44:13;1017.2;;;7.8;73.1
74435;BME280;62867;52.038;29.256;2022-11-15T21:49:03;1017.2;;;7.8;73
74435;BME280;62867;52.038;29.256;2022-11-15T21:54:13;1017.1;;;7.8;73.1
74435;BME280;62867;52.038;29.256;2022-11-15T21:58:59;1017.1;;;7.8;73.3
74435;BME280;62867;52.038;29.256;2022-11-15T22:04:09;1017;;;7.8;73.4
74435;BME280;62867;52.038;29.256;2022-11-15T22:08:59;1017;;;7.8;73.1
74435;BME280;62867;52.038;29.256;2022-11-15T22:14:09;1017;;;7.8;73.3
74435;BME280;62867;52.038;29.256;2022-11-15T22:19:11;1017;;;7.8;73.3
74435;BME280;62867;52.038;29.256;2022-11-15T22:24:09;1016.9;;;7.8;73.5
74435;BME280;62867;52.038;29.256;2022-11-15T22:29:09;1016.9;;;7.8;73.6
74435;BME280;62867;52.038;29.256;2022-11-15T22:34:39;1016.9;;;7.9;73.4
74435;BME280;62867;52.038;29.256;2022-11-15T22:39:11;1016.8;;;7.9;73.4
74435;BME280;62867;52.038;29.256;2022-11-15T22:44:09;1016.8;;;7.9;73.2
74435;BME280;62867;52.038;29.256;2022-11-15T22:48:59;1016.8;;;7.9;73.1
74435;BME280;62867;52.038;29.256;2022-11-15T22:54:09;1016.8;;;7.8;73.3
74435;BME280;62867;52.038;29.256;2022-11-15T22:58:59;1016.7;;;7.8;73.3
74435;BME280;62867;52.038;29.256;2022-11-15T23:04:11;1016.7;;;7.8;73.4
74435;BME280;62867;52.038;29.256;2022-11-15T23:08:59;1016.7;;;7.8;73.4
74435;BME280;62867;52.038;29.256;2022-11-15T23:14:21;1016.6;;;7.8;73.7
74435;BME280;62867;52.038;29.256;2022-11-15T23:19:01;1016.5;;;7.8;73.8
74435;BME280;62867;52.038;29.256;2022-11-15T23:23:59;1016.5;;;7.8;73.8
74435;BME280;62867;52.038;29.256;2022-11-15T23:28:59;1016.5;;;7.8;73.7
74435;BME280;62867;52.038;29.256;2022-11-15T23:33:59;1016.5;;;7.9;73.7
74435;BME280;62867;52.038;29.256;2022-11-15T23:38:59;1016.4;;;7.9;73.6
74435;BME280;62867;52.038;29.256;2022-11-15T23:43:59;1016.4;;;7.9;73.7
74435;BME280;62867;52.038;29.256;2022-11-15T23:48:59;1016.4;;;7.8;73.3
74435;BME280;62867;52.038;29.256;2022-11-15T23:54:11;1016.4;;;7.8;73.4
74435;BME280;62867;52.038;29.256;2022-11-15T23:59:09;1016.4;;;7.8;73.2
